Terminal Aerodrome Forecast
Issued by NWS

Home | Current Version | Previous Version | Text Only | Print | Product List | Glossary On
Versions: 1 2 3 4 5 6 7 8 9 10 11 12 13 14
000
FTUS45 KTFX 090547
TAFCTB
TAF
KCTB 090547Z 0906/1006 06006KT P6SM SCT020 OVC030
     FM091800 VRB06KT P6SM VCSH BKN015 OVC025
      TEMPO 0920/0924 4SM -SN OVC015=

USA.gov is the U.S. government's official web portal to all federal, state and local government web resources and services.